Time;durP1;ratioP1;P1;durP2;ratioP2;P2;SDS_P1;SDS_P2;PMS_P1;PMS_P2;Temp;Humidity;BMP_temperature;BMP_pressure;BME280_temperature;BME280_humidity;BME280_pressure;Samples;Min_cycle;Max_cycle;Signal;HPM_P1;HPM_P2
2024/01/17 00:01:30;;;;;;;3.05;2.78;;;4.90;67.00;;;;;;5095630;28;20060;-74
2024/01/17 00:03:55;;;;;;;2.92;2.50;;;4.90;67.00;;;;;;5096152;28;20119;-74
2024/01/17 00:06:21;;;;;;;2.88;2.67;;;4.90;67.00;;;;;;5095732;28;20492;-73
2024/01/17 00:08:47;;;;;;;2.72;2.50;;;4.90;67.00;;;;;;5095308;28;20036;-74
2024/01/17 00:11:12;;;;;;;2.65;2.45;;;4.90;67.00;;;;;;5095517;28;20055;-74
2024/01/17 00:13:38;;;;;;;2.58;2.38;;;4.90;66.90;;;;;;5095447;28;20024;-74
2024/01/17 00:16:04;;;;;;;2.80;2.60;;;4.90;66.90;;;;;;5096012;28;20028;-74
2024/01/17 00:18:30;;;;;;;2.80;2.60;;;4.80;66.90;;;;;;5077264;28;20478;-74
2024/01/17 00:20:56;;;;;;;2.70;2.50;;;4.80;66.80;;;;;;5095482;28;20035;-74
2024/01/17 00:23:21;;;;;;;2.85;2.60;;;4.80;66.80;;;;;;5095489;28;20020;-74
2024/01/17 00:25:47;;;;;;;2.92;2.60;;;4.90;66.90;;;;;;5095086;28;20032;-74
2024/01/17 00:28:14;;;;;;;2.83;2.60;;;4.80;66.80;;;;;;5095021;28;20089;-75
2024/01/17 00:30:39;;;;;;;3.83;2.80;;;4.80;66.80;;;;;;5095275;28;20115;-73
2024/01/17 00:33:05;;;;;;;2.90;2.70;;;4.80;66.80;;;;;;5077529;28;20059;-74
2024/01/17 00:35:31;;;;;;;2.88;2.67;;;4.80;66.80;;;;;;5095336;28;20453;-75
2024/01/17 00:37:56;;;;;;;2.80;2.60;;;4.80;66.80;;;;;;5094841;28;20470;-74
2024/01/17 00:40:22;;;;;;;3.25;2.72;;;4.80;66.80;;;;;;5077160;28;20462;-73
2024/01/17 00:42:49;;;;;;;2.80;2.60;;;4.80;66.80;;;;;;5095067;28;20024;-75
2024/01/17 00:45:14;;;;;;;2.60;2.40;;;4.70;66.80;;;;;;5094679;28;20069;-74
2024/01/17 00:47:40;;;;;;;2.80;2.60;;;4.80;66.80;;;;;;5094717;28;20103;-74
2024/01/17 00:50:06;;;;;;;2.47;2.33;;;4.70;66.70;;;;;;5077086;28;20102;-74
2024/01/17 00:52:32;;;;;;;2.78;2.58;;;4.70;66.70;;;;;;5060288;28;20024;-75
2024/01/17 00:54:58;;;;;;;3.28;2.65;;;4.70;66.70;;;;;;5056487;28;20470;-74
2024/01/17 00:57:24;;;;;;;3.10;2.78;;;4.70;66.70;;;;;;5079115;28;20028;-74
2024/01/17 00:59:49;;;;;;;2.92;2.70;;;4.70;66.70;;;;;;5094814;28;20109;-74
2024/01/17 01:02:15;;;;;;;2.78;2.53;;;4.70;66.70;;;;;;5094287;28;20030;-74
2024/01/17 01:04:40;;;;;;;2.60;2.40;;;4.70;66.80;;;;;;5094433;28;20378;-74
2024/01/17 01:07:06;;;;;;;2.78;2.58;;;4.70;66.70;;;;;;5094290;28;20024;-75
2024/01/17 01:09:32;;;;;;;2.70;2.50;;;4.70;66.70;;;;;;5076540;28;20024;-74
2024/01/17 01:11:57;;;;;;;3.80;2.70;;;4.70;66.70;;;;;;5094629;28;20078;-75
2024/01/17 01:14:23;;;;;;;2.97;2.60;;;4.60;66.60;;;;;;5094180;28;20347;-74
2024/01/17 01:16:49;;;;;;;2.67;2.47;;;4.70;66.70;;;;;;5094561;28;20035;-74
2024/01/17 01:19:15;;;;;;;2.88;2.67;;;4.70;66.70;;;;;;5075803;28;20032;-74
2024/01/17 01:21:42;;;;;;;2.67;2.42;;;4.60;66.60;;;;;;5094408;28;20066;-74
2024/01/17 01:24:08;;;;;;;2.80;2.60;;;4.60;66.70;;;;;;5076203;28;20059;-75
2024/01/17 01:26:35;;;;;;;3.03;2.80;;;4.60;66.60;;;;;;5094337;28;20059;-74
2024/01/17 01:29:01;;;;;;;2.80;2.60;;;4.60;66.60;;;;;;5093815;28;20539;-74
2024/01/17 01:31:27;;;;;;;3.42;3.03;;;4.60;66.60;;;;;;5076354;28;20078;-74
2024/01/17 01:33:52;;;;;;;3.17;2.83;;;4.60;66.50;;;;;;5076461;28;20080;-75
2024/01/17 01:36:19;;;;;;;3.08;2.78;;;4.60;67.10;;;;;;5094107;28;20096;-75
2024/01/17 01:38:44;;;;;;;3.03;2.72;;;4.60;66.60;;;;;;5093641;28;20592;-74
2024/01/17 01:41:10;;;;;;;3.33;2.92;;;4.60;66.50;;;;;;5075916;28;20067;-74
2024/01/17 01:43:36;;;;;;;2.83;2.60;;;4.60;66.50;;;;;;5094149;28;20020;-75
2024/01/17 01:46:04;;;;;;;2.95;2.75;;;4.60;66.50;;;;;;5076111;28;20351;-73
2024/01/17 01:48:31;;;;;;;2.80;2.60;;;4.60;66.60;;;;;;5093837;28;20036;-75
2024/01/17 01:50:58;;;;;;;3.20;2.85;;;4.50;66.50;;;;;;5075920;28;20031;-74
2024/01/17 01:53:24;;;;;;;3.20;2.90;;;4.50;66.50;;;;;;5075785;28;20081;-75
2024/01/17 01:55:52;;;;;;;2.90;2.70;;;4.60;66.50;;;;;;5093872;28;20363;-74
2024/01/17 01:58:19;;;;;;;2.63;2.42;;;4.60;66.50;;;;;;5075401;28;20047;-75
2024/01/17 02:00:46;;;;;;;2.88;2.67;;;4.50;66.50;;;;;;5075852;28;20497;-73
2024/01/17 02:03:13;;;;;;;3.03;2.72;;;4.50;66.50;;;;;;5075651;28;20024;-74
2024/01/17 02:05:39;;;;;;;3.42;2.85;;;4.50;66.50;;;;;;5093715;28;20036;-75
2024/01/17 02:08:06;;;;;;;2.92;2.63;;;4.50;66.50;;;;;;5075544;28;20028;-74
2024/01/17 02:10:32;;;;;;;2.80;2.60;;;4.50;66.50;;;;;;5093448;28;20466;-74
2024/01/17 02:12:59;;;;;;;3.58;2.65;;;4.50;66.50;;;;;;5063204;28;20055;-74
2024/01/17 02:15:25;;;;;;;2.88;2.60;;;4.50;66.50;;;;;;5077129;28;20040;-74
2024/01/17 02:17:50;;;;;;;2.95;2.50;;;4.50;66.50;;;;;;5084612;28;20032;-74
2024/01/17 02:20:17;;;;;;;3.20;2.90;;;4.50;66.50;;;;;;5097834;28;20386;-75
2024/01/17 02:22:43;;;;;;;2.70;2.50;;;4.50;66.40;;;;;;5097712;28;20035;-74
2024/01/17 02:25:08;;;;;;;3.10;2.80;;;4.50;66.40;;;;;;5097504;28;20024;-74
2024/01/17 02:27:34;;;;;;;3.30;3.00;;;4.50;66.40;;;;;;5079190;28;20489;-74
2024/01/17 02:30:00;;;;;;;2.50;2.30;;;4.40;66.30;;;;;;5079410;28;20032;-74
2024/01/17 02:32:26;;;;;;;2.90;2.70;;;4.40;66.30;;;;;;5097868;28;20028;-74
2024/01/17 02:34:52;;;;;;;2.80;2.45;;;4.50;66.40;;;;;;5079508;28;20028;-74
2024/01/17 02:37:18;;;;;;;3.33;3.03;;;4.50;66.40;;;;;;5097177;28;20466;-75
2024/01/17 02:39:43;;;;;;;3.30;3.00;;;4.40;66.30;;;;;;5097204;28;20031;-75
2024/01/17 02:42:09;;;;;;;3.65;3.08;;;4.40;66.30;;;;;;5079478;28;20132;-74
2024/01/17 02:44:35;;;;;;;3.17;2.90;;;4.40;66.30;;;;;;5097168;28;20036;-74
2024/01/17 02:47:01;;;;;;;3.03;2.72;;;4.40;66.30;;;;;;5079533;28;20122;-75
2024/01/17 02:49:26;;;;;;;3.00;2.80;;;4.40;66.30;;;;;;5097118;28;20477;-76
2024/01/17 02:51:52;;;;;;;2.88;2.67;;;4.50;66.30;;;;;;5097270;28;20023;-74
2024/01/17 02:54:18;;;;;;;3.40;3.10;;;4.40;66.30;;;;;;5078655;28;20024;-74
2024/01/17 02:56:44;;;;;;;3.30;3.00;;;4.40;66.20;;;;;;5096958;28;20028;-75
2024/01/17 02:59:09;;;;;;;2.85;2.65;;;4.40;66.20;;;;;;5078424;28;20059;-74
2024/01/17 03:01:35;;;;;;;2.97;2.72;;;4.40;66.20;;;;;;5097022;28;20051;-74
2024/01/17 03:04:00;;;;;;;3.17;2.88;;;4.40;66.20;;;;;;5062163;28;20085;-75
2024/01/17 03:06:26;;;;;;;3.30;3.00;;;4.40;66.20;;;;;;5096847;28;20028;-74
2024/01/17 03:08:52;;;;;;;3.05;2.75;;;4.40;66.20;;;;;;5096473;28;20494;-74
2024/01/17 03:11:18;;;;;;;3.20;2.83;;;4.40;66.20;;;;;;5097064;28;20455;-74
2024/01/17 03:13:43;;;;;;;3.28;2.83;;;4.40;66.20;;;;;;5096666;28;20074;-75
2024/01/17 03:16:09;;;;;;;3.33;3.03;;;4.40;66.20;;;;;;5096672;28;20039;-75
2024/01/17 03:18:37;;;;;;;2.97;2.67;;;4.40;66.20;;;;;;5096243;28;20043;-75
2024/01/17 03:21:06;;;;;;;3.78;3.17;;;4.40;66.20;;;;;;5105358;28;20413;-75
2024/01/17 03:23:31;;;;;;;4.38;3.17;;;4.30;66.10;;;;;;5116714;28;20028;-74
2024/01/17 03:25:57;;;;;;;3.63;3.05;;;4.30;66.10;;;;;;5116284;28;20027;-74
2024/01/17 03:28:23;;;;;;;3.28;2.97;;;4.30;66.10;;;;;;5107532;28;20028;-75
2024/01/17 03:30:48;;;;;;;3.10;2.80;;;4.30;66.10;;;;;;5096533;28;20487;-74
2024/01/17 03:33:14;;;;;;;3.60;3.10;;;4.30;66.00;;;;;;5078461;28;20538;-74
2024/01/17 03:35:42;;;;;;;3.60;3.30;;;4.30;66.00;;;;;;5095432;28;20062;-75
2024/01/17 03:38:07;;;;;;;4.07;3.00;;;4.30;66.00;;;;;;5095172;28;20093;-74
2024/01/17 03:40:33;;;;;;;3.83;3.40;;;4.30;66.00;;;;;;5095281;28;20032;-74
2024/01/17 03:42:59;;;;;;;3.83;3.17;;;4.30;66.00;;;;;;5095446;28;20047;-75
2024/01/17 03:45:24;;;;;;;3.20;2.90;;;4.30;66.00;;;;;;5096072;28;20103;-74
2024/01/17 03:47:50;;;;;;;3.10;2.80;;;4.30;66.00;;;;;;5096218;28;20036;-75
2024/01/17 03:50:16;;;;;;;3.20;2.90;;;4.30;66.00;;;;;;5095992;28;20033;-74
2024/01/17 03:52:41;;;;;;;2.80;2.60;;;4.30;66.00;;;;;;5077686;28;20064;-73
2024/01/17 03:55:07;;;;;;;4.10;3.10;;;4.30;66.00;;;;;;5096240;28;20024;-75
2024/01/17 03:57:34;;;;;;;3.20;2.90;;;4.30;66.00;;;;;;5095716;28;20466;-75
2024/01/17 04:00:00;;;;;;;3.03;2.75;;;4.30;66.00;;;;;;5095895;28;20024;-74
2024/01/17 04:02:25;;;;;;;3.80;3.00;;;4.30;66.00;;;;;;5095979;28;20477;-74
2024/01/17 04:04:51;;;;;;;3.25;2.95;;;4.30;66.00;;;;;;5095960;28;20052;-74
2024/01/17 04:07:20;;;;;;;3.03;2.75;;;4.20;65.90;;;;;;5095736;28;20434;-74
2024/01/17 04:09:46;;;;;;;3.78;3.25;;;4.20;66.00;;;;;;5095510;28;20024;-75
2024/01/17 04:12:12;;;;;;;3.20;2.90;;;4.20;65.90;;;;;;5059968;28;20039;-74
2024/01/17 04:14:38;;;;;;;3.42;3.05;;;4.20;66.00;;;;;;5075757;28;20355;-74
2024/01/17 04:17:03;;;;;;;3.00;2.70;;;4.20;65.90;;;;;;5078378;28;20476;-75
2024/01/17 04:19:29;;;;;;;3.20;2.90;;;4.20;65.90;;;;;;5077214;28;20036;-75
2024/01/17 04:21:57;;;;;;;3.00;2.80;;;4.20;65.90;;;;;;5095380;28;20035;-75
2024/01/17 04:24:26;;;;;;;4.28;3.45;;;4.20;65.90;;;;;;5095535;28;20035;-74
2024/01/17 04:26:57;;;;;;;4.15;3.25;;;4.20;65.90;;;;;;5095661;28;20024;-75
2024/01/17 04:29:23;;;;;;;3.60;3.30;;;4.20;65.90;;;;;;5095566;28;20032;-75
2024/01/17 04:31:49;;;;;;;3.30;3.00;;;4.20;65.90;;;;;;5062039;28;20462;-75
2024/01/17 04:34:15;;;;;;;3.63;3.33;;;4.20;65.90;;;;;;5074732;28;20477;-75
2024/01/17 04:36:41;;;;;;;3.35;3.05;;;4.20;65.90;;;;;;5074855;28;20494;-74
2024/01/17 04:39:08;;;;;;;3.30;2.97;;;4.20;65.90;;;;;;5073009;28;20055;-75
2024/01/17 04:41:34;;;;;;;3.63;3.33;;;4.20;65.90;;;;;;5093916;28;20032;-74
2024/01/17 04:44:00;;;;;;;4.38;3.10;;;4.20;65.90;;;;;;5094632;28;20028;-75
2024/01/17 04:46:27;;;;;;;3.40;3.10;;;4.20;65.90;;;;;;5076694;28;20026;-75
2024/01/17 04:48:53;;;;;;;3.75;3.00;;;4.10;65.80;;;;;;5094644;28;20111;-75
2024/01/17 04:51:22;;;;;;;3.40;3.10;;;4.20;65.90;;;;;;5094717;28;20108;-74
2024/01/17 04:53:48;;;;;;;4.85;3.30;;;4.10;65.80;;;;;;5094694;28;20028;-74
2024/01/17 04:56:15;;;;;;;2.95;2.75;;;4.10;65.80;;;;;;5094490;28;20030;-75
2024/01/17 04:58:43;;;;;;;3.70;3.25;;;4.20;65.80;;;;;;5071744;28;20094;-75
2024/01/17 05:01:09;;;;;;;3.30;3.00;;;4.10;65.70;;;;;;5072551;28;20044;-74
2024/01/17 05:03:35;;;;;;;4.00;3.60;;;4.10;65.70;;;;;;5074465;28;20024;-75
2024/01/17 05:06:02;;;;;;;4.30;3.50;;;4.10;65.80;;;;;;5074243;28;20033;-75
2024/01/17 05:08:28;;;;;;;5.35;3.70;;;4.10;65.70;;;;;;5073105;28;20032;-74
2024/01/17 05:10:55;;;;;;;4.03;3.50;;;4.10;65.70;;;;;;5074280;28;20073;-75
2024/01/17 05:13:20;;;;;;;4.35;3.33;;;4.10;65.70;;;;;;5073245;28;20031;-74
2024/01/17 05:15:46;;;;;;;4.07;3.50;;;4.10;65.70;;;;;;5074066;28;20024;-74
2024/01/17 05:18:13;;;;;;;4.30;3.50;;;4.10;65.70;;;;;;5073744;28;20033;-74
2024/01/17 05:20:39;;;;;;;4.00;3.53;;;4.10;65.70;;;;;;5074316;28;20064;-75
2024/01/17 05:23:04;;;;;;;4.43;3.28;;;4.10;65.70;;;;;;5073492;28;20025;-73
2024/01/17 05:25:30;;;;;;;3.85;3.38;;;4.10;65.60;;;;;;5074298;28;20085;-75
2024/01/17 05:27:56;;;;;;;4.05;3.65;;;4.10;65.60;;;;;;5073915;28;20455;-76
2024/01/17 05:30:23;;;;;;;4.03;3.38;;;4.10;65.70;;;;;;5074439;28;20043;-75
2024/01/17 05:32:49;;;;;;;4.38;3.58;;;4.10;65.60;;;;;;5072561;28;20402;-75
2024/01/17 05:35:16;;;;;;;4.85;3.75;;;4.10;65.60;;;;;;5072415;28;20037;-76
2024/01/17 05:37:42;;;;;;;93.28;71.07;;;4.10;65.60;;;;;;5073823;28;20475;-71
2024/01/17 05:40:09;;;;;;;100.45;70.70;;;4.10;66.10;;;;;;5072442;28;20105;-73
2024/01/17 05:42:36;;;;;;;116.70;80.40;;;4.10;66.60;;;;;;5072789;28;20035;-74
2024/01/17 05:45:02;;;;;;;106.47;75.32;;;4.10;66.80;;;;;;5072890;28;20037;-74
2024/01/17 05:47:28;;;;;;;110.43;75.80;;;4.20;66.90;;;;;;5071458;28;20032;-74
2024/01/17 05:49:54;;;;;;;118.55;77.63;;;4.20;67.50;;;;;;5072979;28;20078;-73
2024/01/17 05:52:19;;;;;;;109.35;72.55;;;4.20;66.90;;;;;;5073485;28;20020;-73
2024/01/17 05:54:45;;;;;;;92.72;66.15;;;4.20;66.90;;;;;;5071452;28;20033;-73
2024/01/17 05:57:11;;;;;;;93.65;62.67;;;4.20;66.90;;;;;;5073246;28;20029;-74
2024/01/17 05:59:38;;;;;;;84.95;60.42;;;4.20;66.90;;;;;;5071369;28;20052;-73
2024/01/17 06:02:03;;;;;;;93.40;63.55;;;4.20;66.90;;;;;;5071982;28;20043;-73
2024/01/17 06:04:30;;;;;;;85.90;57.97;;;4.20;66.90;;;;;;5073791;28;20420;-73
2024/01/17 06:06:55;;;;;;;82.05;53.42;;;4.20;66.90;;;;;;5072179;28;20539;-73
2024/01/17 06:09:21;;;;;;;77.03;52.80;;;4.30;67.00;;;;;;5072352;28;20032;-72
2024/01/17 06:11:46;;;;;;;66.70;46.15;;;4.20;66.90;;;;;;5073643;28;20024;-73
2024/01/17 06:14:12;;;;;;;73.18;47.60;;;4.30;66.90;;;;;;5071936;28;20164;-74
2024/01/17 06:16:38;;;;;;;62.75;41.50;;;4.30;66.90;;;;;;5072849;28;20039;-72
2024/01/17 06:19:03;;;;;;;57.33;38.65;;;4.30;66.90;;;;;;5073546;28;20112;-73
2024/01/17 06:21:29;;;;;;;58.80;37.65;;;4.30;66.80;;;;;;5072243;28;20494;-72
2024/01/17 06:23:55;;;;;;;51.20;35.03;;;4.30;66.70;;;;;;5072354;28;20074;-72
2024/01/17 06:26:22;;;;;;;42.38;31.05;;;4.30;66.70;;;;;;5073830;28;20054;-72
2024/01/17 06:28:47;;;;;;;42.70;29.90;;;4.30;66.70;;;;;;5072113;28;20482;-72
2024/01/17 06:31:25;;;;;;;45.17;29.90;;;4.30;66.60;;;;;;5072285;28;20074;-73
2024/01/17 06:33:51;;;;;;;40.58;26.40;;;4.30;66.60;;;;;;5072100;28;20028;-73
2024/01/17 06:36:17;;;;;;;45.55;27.95;;;4.30;66.60;;;;;;5072395;28;20020;-73
2024/01/17 06:38:44;;;;;;;38.67;25.50;;;4.30;66.60;;;;;;5072073;28;20474;-71
2024/01/17 06:41:09;;;;;;;31.23;20.15;;;4.30;66.50;;;;;;5073353;28;20562;-73
2024/01/17 06:43:35;;;;;;;36.45;22.05;;;4.30;66.50;;;;;;5071628;28;20120;-73
2024/01/17 06:46:00;;;;;;;33.67;19.52;;;4.30;66.50;;;;;;5073620;28;20024;-72
2024/01/17 06:48:26;;;;;;;25.75;16.58;;;4.40;66.50;;;;;;5073251;28;20036;-72
2024/01/17 06:50:52;;;;;;;23.83;15.68;;;4.30;66.40;;;;;;5071785;28;20029;-73
2024/01/17 06:53:17;;;;;;;25.05;15.57;;;4.30;66.30;;;;;;5071818;28;20027;-72
2024/01/17 06:55:43;;;;;;;19.73;12.38;;;4.40;66.40;;;;;;5071115;28;20051;-73
2024/01/17 06:58:10;;;;;;;18.02;12.15;;;4.40;66.40;;;;;;5073715;28;20142;-72
2024/01/17 07:00:36;;;;;;;20.42;13.20;;;4.40;66.30;;;;;;5091928;28;20032;-73
2024/01/17 07:03:01;;;;;;;14.93;10.00;;;4.40;66.30;;;;;;5096985;28;20420;-80
2024/01/17 07:05:28;;;;;;;14.30;10.45;;;4.40;66.30;;;;;;5096645;28;20098;-74
2024/01/17 07:07:54;;;;;;;14.02;9.02;;;4.40;66.20;;;;;;5097205;28;20493;-70
2024/01/17 07:10:19;;;;;;;12.00;8.35;;;4.40;66.30;;;;;;5096306;28;20028;-79
2024/01/17 07:12:45;;;;;;;12.38;8.52;;;4.40;66.20;;;;;;5078511;28;20466;-76
2024/01/17 07:15:12;;;;;;;11.13;7.63;;;4.40;66.20;;;;;;5078608;28;20035;-76
2024/01/17 07:17:38;;;;;;;9.88;7.20;;;4.50;66.20;;;;;;5078147;28;20024;-78
2024/01/17 07:20:04;;;;;;;8.55;6.63;;;4.40;66.10;;;;;;5078601;28;20489;-79
2024/01/17 07:22:30;;;;;;;7.25;5.72;;;4.50;66.20;;;;;;5096424;28;20502;-78
2024/01/17 07:24:56;;;;;;;7.47;5.93;;;4.40;66.00;;;;;;5078135;28;20146;-76
2024/01/17 07:27:21;;;;;;;7.68;5.78;;;4.50;66.10;;;;;;5078155;28;20126;-77
2024/01/17 07:29:47;;;;;;;7.75;5.65;;;4.50;66.10;;;;;;5096984;28;20020;-78
2024/01/17 07:32:13;;;;;;;7.13;5.60;;;4.50;66.00;;;;;;5095872;28;20035;-74
2024/01/17 07:34:39;;;;;;;8.48;5.55;;;4.50;66.00;;;;;;5078385;28;20479;-76
2024/01/17 07:37:04;;;;;;;6.78;5.30;;;4.50;66.00;;;;;;5077960;28;20028;-75
2024/01/17 07:39:30;;;;;;;7.18;5.30;;;4.50;66.00;;;;;;5077918;28;20127;-72
2024/01/17 07:41:56;;;;;;;7.43;5.13;;;4.50;65.90;;;;;;5077985;28;20028;-73
2024/01/17 07:44:27;;;;;;;6.75;4.80;;;4.50;65.90;;;;;;5095923;28;20027;-73
2024/01/17 07:46:53;;;;;;;7.15;4.93;;;4.60;65.90;;;;;;5083035;28;20523;-73
2024/01/17 07:49:19;;;;;;;6.45;4.93;;;4.60;65.90;;;;;;5077661;28;20397;-73
2024/01/17 07:51:45;;;;;;;6.13;4.85;;;4.60;65.90;;;;;;5095797;28;20035;-74
2024/01/17 07:54:11;;;;;;;5.68;4.47;;;4.60;66.00;;;;;;5077594;28;20031;-76
2024/01/17 07:56:37;;;;;;;6.85;5.13;;;4.60;65.80;;;;;;5077688;28;20024;-74
2024/01/17 07:59:02;;;;;;;6.57;5.13;;;4.60;65.70;;;;;;5073782;28;20059;-74
2024/01/17 08:01:29;;;;;;;6.13;4.70;;;4.60;65.70;;;;;;5074209;28;20025;-73
2024/01/17 08:03:55;;;;;;;6.45;4.93;;;4.70;65.80;;;;;;5075486;28;20028;-74
2024/01/17 08:06:21;;;;;;;6.07;4.82;;;4.60;65.70;;;;;;5073783;28;20021;-72
2024/01/17 08:08:46;;;;;;;5.63;4.57;;;4.70;65.70;;;;;;5071223;28;20036;-71
2024/01/17 08:11:12;;;;;;;7.53;5.40;;;4.70;65.70;;;;;;5074944;28;20073;-77
2024/01/17 08:13:38;;;;;;;6.03;5.13;;;4.70;65.60;;;;;;5073717;28;20595;-75
2024/01/17 08:16:04;;;;;;;6.15;4.95;;;4.70;65.60;;;;;;5075250;28;20429;-77
2024/01/17 08:18:29;;;;;;;6.22;4.85;;;4.70;65.60;;;;;;5074786;28;20044;-77
2024/01/17 08:20:55;;;;;;;5.35;4.45;;;4.70;65.60;;;;;;5072924;28;20039;-75
2024/01/17 08:23:21;;;;;;;6.20;5.10;;;4.70;65.50;;;;;;5073290;28;20116;-76
2024/01/17 08:25:47;;;;;;;6.55;4.80;;;4.80;65.60;;;;;;5073489;28;20029;-76
2024/01/17 08:28:12;;;;;;;5.88;4.72;;;4.80;65.50;;;;;;5073424;28;20016;-77
2024/01/17 08:30:38;;;;;;;6.25;5.30;;;4.80;65.50;;;;;;5074850;28;20051;-81
2024/01/17 08:33:04;;;;;;;6.30;5.20;;;4.80;65.50;;;;;;5073657;28;20374;-80
2024/01/17 08:35:31;;;;;;;7.22;5.00;;;4.80;66.00;;;;;;5077820;28;20055;-80
2024/01/17 08:38:00;;;;;;;7.45;5.22;;;4.80;65.40;;;;;;5060697;28;20028;-78
2024/01/17 08:40:25;;;;;;;7.72;6.00;;;4.80;65.40;;;;;;5074675;28;20028;-78
2024/01/17 08:42:51;;;;;;;6.25;4.88;;;4.80;65.40;;;;;;5075310;28;20097;-80
2024/01/17 08:45:18;;;;;;;6.40;4.93;;;4.80;65.80;;;;;;5073424;28;20028;-80
2024/01/17 08:47:44;;;;;;;6.22;4.38;;;4.80;65.30;;;;;;5075020;28;20032;-79
2024/01/17 08:50:13;;;;;;;6.32;5.07;;;4.80;65.30;;;;;;5074834;28;20107;-80
2024/01/17 08:52:39;;;;;;;6.38;5.07;;;4.90;65.30;;;;;;5072781;28;20028;-80
2024/01/17 08:55:08;;;;;;;6.30;5.15;;;4.90;65.30;;;;;;5074617;28;20042;-79
2024/01/17 08:57:36;;;;;;;6.60;5.53;;;4.90;65.20;;;;;;5071353;28;20025;-79
2024/01/17 09:00:06;;;;;;;6.80;5.30;;;4.90;65.20;;;;;;5072836;28;20194;-80
2024/01/17 09:02:32;;;;;;;5.60;4.97;;;4.90;65.20;;;;;;5074027;28;20078;-80
2024/01/17 09:04:58;;;;;;;6.80;5.35;;;4.90;65.10;;;;;;5073330;28;20421;-80
2024/01/17 09:07:24;;;;;;;6.82;5.30;;;4.90;65.10;;;;;;5074275;28;20106;-82
2024/01/17 09:09:50;;;;;;;6.43;5.35;;;4.90;65.10;;;;;;5073047;28;20032;-80
2024/01/17 09:12:18;;;;;;;7.13;5.63;;;4.90;65.10;;;;;;5073940;28;20056;-80
2024/01/17 09:14:51;;;;;;;6.40;4.95;;;4.90;65.10;;;;;;5074438;28;20485;-80
2024/01/17 09:17:17;;;;;;;6.15;4.72;;;4.90;65.00;;;;;;5074587;28;20032;-81
2024/01/17 09:19:43;;;;;;;6.22;4.97;;;5.00;65.10;;;;;;5072461;28;20045;-80
2024/01/17 09:22:09;;;;;;;7.55;5.82;;;5.00;65.00;;;;;;5072844;28;20433;-78
2024/01/17 09:24:36;;;;;;;5.82;4.50;;;5.00;65.60;;;;;;5072333;28;20040;-79
2024/01/17 09:27:02;;;;;;;6.55;4.90;;;5.00;65.00;;;;;;5072792;28;20493;-79
2024/01/17 09:29:33;;;;;;;6.43;5.20;;;5.00;65.00;;;;;;5073832;28;20032;-82
2024/01/17 09:32:00;;;;;;;7.00;5.63;;;5.00;64.90;;;;;;5073815;28;20415;-84
2024/01/17 09:34:26;;;;;;;7.13;5.10;;;5.00;64.90;;;;;;5073797;28;20425;-80
2024/01/17 09:36:52;;;;;;;6.72;5.30;;;5.10;64.90;;;;;;5073847;28;20020;-79
2024/01/17 09:39:18;;;;;;;7.13;5.25;;;5.00;64.80;;;;;;5072238;28;20048;-80
2024/01/17 09:41:44;;;;;;;6.82;5.20;;;5.00;64.80;;;;;;5072650;28;20024;-79
2024/01/17 09:44:11;;;;;;;7.13;5.75;;;5.10;64.80;;;;;;5073519;28;20039;-81
2024/01/17 09:46:42;;;;;;;7.50;5.82;;;5.10;64.80;;;;;;5073736;28;20110;-78
2024/01/17 09:49:08;;;;;;;7.00;5.28;;;5.10;64.80;;;;;;5072763;28;20028;-78
2024/01/17 09:51:36;;;;;;;6.10;4.88;;;5.10;64.80;;;;;;5075082;28;20036;-79
2024/01/17 09:54:05;;;;;;;6.75;5.55;;;5.10;64.70;;;;;;5074404;28;20024;-76
2024/01/17 09:56:33;;;;;;;6.55;5.57;;;5.10;64.70;;;;;;5073419;28;20109;-79
2024/01/17 09:59:23;;;;;;;7.32;5.32;;;5.10;64.70;;;;;;5086920;28;20056;-80
2024/01/17 10:01:49;;;;;;;6.03;5.00;;;5.20;64.70;;;;;;5079568;28;20036;-74
2024/01/17 10:04:15;;;;;;;7.20;5.28;;;5.20;64.70;;;;;;5092095;28;20028;-82
2024/01/17 10:06:45;;;;;;;7.05;5.30;;;5.20;64.60;;;;;;5073241;28;20081;-83
2024/01/17 10:09:11;;;;;;;7.03;5.20;;;5.20;64.60;;;;;;5091380;28;20023;-83
2024/01/17 10:11:38;;;;;;;8.45;5.88;;;5.20;64.60;;;;;;5089809;28;20046;-81
2024/01/17 10:14:04;;;;;;;6.45;4.80;;;5.20;64.60;;;;;;5074296;28;20077;-81
2024/01/17 10:16:31;;;;;;;7.85;5.78;;;5.20;64.60;;;;;;5099526;28;20035;-82
2024/01/17 10:18:59;;;;;;;6.80;5.60;;;5.20;64.50;;;;;;5091907;28;20032;-82
2024/01/17 10:21:25;;;;;;;6.75;5.30;;;5.20;64.60;;;;;;5073729;28;20032;-81
2024/01/17 10:23:51;;;;;;;7.10;5.28;;;5.20;64.50;;;;;;5074164;28;20058;-75
2024/01/17 10:26:17;;;;;;;7.97;5.65;;;5.20;64.50;;;;;;5091845;28;20027;-72
2024/01/17 10:28:45;;;;;;;6.80;5.22;;;5.30;64.50;;;;;;5074135;28;20107;-74
2024/01/17 10:31:11;;;;;;;6.78;5.22;;;5.30;64.60;;;;;;5091384;28;20028;-75
2024/01/17 10:33:39;;;;;;;5.85;4.68;;;5.30;64.50;;;;;;5070977;28;20037;-78
2024/01/17 10:36:05;;;;;;;7.50;5.88;;;5.30;64.50;;;;;;5091744;28;20049;-74
2024/01/17 10:38:34;;;;;;;7.40;5.70;;;5.30;64.50;;;;;;5095686;28;20036;-78
2024/01/17 10:41:05;;;;;;;6.57;5.05;;;5.30;64.50;;;;;;5076036;28;20028;-74
2024/01/17 10:43:30;;;;;;;6.20;5.10;;;5.30;64.50;;;;;;5095408;28;20070;-78
2024/01/17 10:45:56;;;;;;;8.55;6.15;;;5.30;64.40;;;;;;5095828;28;21417;-76
2024/01/17 10:48:24;;;;;;;7.03;5.38;;;5.30;64.40;;;;;;5074998;28;20378;-70
2024/01/17 10:50:55;;;;;;;7.50;5.38;;;5.30;64.30;;;;;;5089612;28;20035;-76
2024/01/17 10:53:22;;;;;;;7.47;5.90;;;5.30;64.30;;;;;;5076553;28;20401;-77
2024/01/17 10:55:53;;;;;;;8.15;5.78;;;5.30;64.30;;;;;;5077570;28;20032;-77
2024/01/17 10:58:20;;;;;;;6.85;5.13;;;5.30;64.30;;;;;;5076943;28;20138;-76
2024/01/17 11:00:50;;;;;;;6.80;4.78;;;5.40;64.30;;;;;;5095739;28;20087;-75
2024/01/17 11:03:19;;;;;;;6.90;5.43;;;5.30;64.30;;;;;;5074141;28;20027;-79
2024/01/17 11:05:49;;;;;;;5.40;4.68;;;5.40;64.30;;;;;;5074164;28;20024;-76
2024/01/17 11:08:16;;;;;;;6.75;5.13;;;5.40;64.30;;;;;;5077484;28;20047;-75
2024/01/17 11:10:44;;;;;;;7.80;5.35;;;5.40;64.20;;;;;;5076744;28;20118;-73
2024/01/17 11:13:14;;;;;;;5.97;4.43;;;5.40;64.20;;;;;;5076676;28;20482;-73
2024/01/17 11:15:43;;;;;;;6.25;4.57;;;5.40;64.20;;;;;;5094506;28;20466;-74
2024/01/17 11:18:12;;;;;;;6.20;5.07;;;5.40;64.20;;;;;;5088525;28;20040;-75
2024/01/17 11:20:42;;;;;;;5.57;4.70;;;5.40;64.20;;;;;;5072822;28;20119;-75
2024/01/17 11:23:15;;;;;;;6.63;5.22;;;5.40;64.20;;;;;;5073877;28;20030;-75
2024/01/17 11:26:15;;;;;;;6.80;5.03;;;5.40;64.10;;;;;;5075926;28;20031;-75
2024/01/17 11:28:58;;;;;;;5.65;4.45;;;5.40;64.00;;;;;;5079937;28;20119;-75
2024/01/17 11:31:47;;;;;;;5.80;4.53;;;5.40;64.10;;;;;;5076456;28;20028;-75
2024/01/17 11:34:13;;;;;;;5.45;4.50;;;5.50;64.00;;;;;;5068579;28;20386;-73
2024/01/17 11:36:40;;;;;;;4.65;3.90;;;5.50;64.00;;;;;;5094385;28;20527;-75
2024/01/17 11:39:07;;;;;;;4.75;4.25;;;5.40;64.00;;;;;;5072800;28;20043;-73
2024/01/17 11:41:33;;;;;;;5.28;4.25;;;5.50;64.00;;;;;;5070985;28;20518;-72
2024/01/17 11:43:59;;;;;;;6.47;4.80;;;5.50;64.00;;;;;;5076067;28;20462;-74
2024/01/17 11:46:25;;;;;;;4.90;4.13;;;5.50;64.00;;;;;;5097810;28;20122;-72
2024/01/17 11:48:53;;;;;;;6.20;4.82;;;5.50;64.00;;;;;;5095383;28;20466;-73
2024/01/17 11:51:24;;;;;;;4.97;4.07;;;5.50;63.90;;;;;;5095424;28;20032;-74
2024/01/17 11:53:50;;;;;;;5.80;4.60;;;5.50;63.90;;;;;;5077661;28;20482;-75
2024/01/17 11:56:20;;;;;;;6.20;4.57;;;5.50;63.90;;;;;;5077614;28;20024;-76
2024/01/17 11:59:04;;;;;;;5.45;4.47;;;5.50;63.90;;;;;;5076903;28;20505;-74
2024/01/17 12:01:36;;;;;;;6.50;4.22;;;5.50;63.90;;;;;;5077492;28;20032;-73
2024/01/17 12:04:13;;;;;;;5.50;4.38;;;5.50;63.90;;;;;;5077473;28;20085;-72
2024/01/17 12:06:40;;;;;;;5.88;4.60;;;5.50;63.80;;;;;;5095683;28;20016;-72
2024/01/17 12:09:08;;;;;;;5.53;4.22;;;5.50;63.80;;;;;;5095551;28;20458;-75
2024/01/17 12:11:34;;;;;;;5.50;4.43;;;5.50;63.80;;;;;;5095700;28;20054;-73
2024/01/17 12:14:00;;;;;;;5.68;4.20;;;5.60;63.80;;;;;;5076980;28;20394;-73
2024/01/17 12:16:26;;;;;;;5.28;4.05;;;5.50;63.70;;;;;;5095306;28;20031;-74
2024/01/17 12:18:59;;;;;;;5.30;4.00;;;5.50;63.70;;;;;;5094890;28;20044;-74
2024/01/17 12:21:25;;;;;;;5.50;4.47;;;5.60;63.80;;;;;;5095352;28;20072;-74
2024/01/17 12:23:51;;;;;;;5.65;4.50;;;5.60;63.80;;;;;;5077184;28;20028;-74
2024/01/17 12:26:17;;;;;;;4.90;4.18;;;5.50;63.70;;;;;;5076495;28;20028;-74
2024/01/17 12:28:42;;;;;;;5.30;4.10;;;5.60;63.70;;;;;;5095302;28;20028;-74
2024/01/17 12:31:08;;;;;;;5.35;4.50;;;5.60;63.70;;;;;;5094814;28;20036;-75
2024/01/17 12:33:35;;;;;;;6.10;4.68;;;5.60;63.70;;;;;;5076729;28;20143;-74
2024/01/17 12:36:03;;;;;;;5.90;4.57;;;5.60;63.70;;;;;;5076751;28;20039;-75
2024/01/17 12:38:30;;;;;;;5.05;4.18;;;5.60;63.70;;;;;;5059585;28;20086;-73
2024/01/17 12:40:57;;;;;;;6.47;4.43;;;5.60;63.70;;;;;;5076916;28;20433;-75
2024/01/17 12:43:26;;;;;;;5.22;4.50;;;5.60;63.70;;;;;;5076395;28;20020;-74
2024/01/17 12:45:53;;;;;;;5.78;4.63;;;5.50;63.60;;;;;;5076764;28;20412;-76
2024/01/17 12:48:19;;;;;;;5.07;3.78;;;5.50;63.60;;;;;;5094719;28;20028;-73
2024/01/17 12:50:59;;;;;;;6.00;4.38;;;5.60;63.60;;;;;;5093813;28;20024;-74
2024/01/17 12:53:29;;;;;;;6.28;4.88;;;5.50;63.50;;;;;;5092259;28;20086;-74